sensor_id;sensor_type;location;lat;lon;timestamp;P1;durP1;ratioP1;P2;durP2;ratioP2
12867;SDS011;33517;49.866;8.320;2024-03-07T00:02:39;9.13;;;5.13;;
12867;SDS011;33517;49.866;8.320;2024-03-07T00:05:31;7.50;;;3.22;;
12867;SDS011;33517;49.866;8.320;2024-03-07T00:08:23;5.35;;;3.13;;
12867;SDS011;33517;49.866;8.320;2024-03-07T00:11:15;12.70;;;5.70;;
12867;SDS011;33517;49.866;8.320;2024-03-07T00:14:09;7.47;;;3.63;;
12867;SDS011;33517;49.866;8.320;2024-03-07T00:17:01;7.32;;;4.43;;
12867;SDS011;33517;49.866;8.320;2024-03-07T00:19:53;14.55;;;7.40;;
12867;SDS011;33517;49.866;8.320;2024-03-07T00:22:45;8.07;;;5.10;;
12867;SDS011;33517;49.866;8.320;2024-03-07T00:25:37;10.73;;;6.13;;
12867;SDS011;33517;49.866;8.320;2024-03-07T00:28:28;8.07;;;6.00;;
12867;SDS011;33517;49.866;8.320;2024-03-07T00:31:24;12.93;;;8.30;;
12867;SDS011;33517;49.866;8.320;2024-03-07T00:34:17;19.08;;;10.27;;
12867;SDS011;33517;49.866;8.320;2024-03-07T00:37:10;14.43;;;7.03;;
12867;SDS011;33517;49.866;8.320;2024-03-07T00:40:02;6.68;;;3.25;;
12867;SDS011;33517;49.866;8.320;2024-03-07T00:42:54;6.82;;;4.88;;
12867;SDS011;33517;49.866;8.320;2024-03-07T00:45:46;4.32;;;3.10;;
12867;SDS011;33517;49.866;8.320;2024-03-07T00:48:41;9.98;;;5.95;;
12867;SDS011;33517;49.866;8.320;2024-03-07T00:51:34;17.40;;;9.65;;
12867;SDS011;33517;49.866;8.320;2024-03-07T00:54:26;18.45;;;6.85;;
12867;SDS011;33517;49.866;8.320;2024-03-07T00:57:18;11.05;;;6.80;;
12867;SDS011;33517;49.866;8.320;2024-03-07T01:00:10;13.80;;;4.15;;
12867;SDS011;33517;49.866;8.320;2024-03-07T01:03:04;21.48;;;8.80;;
12867;SDS011;33517;49.866;8.320;2024-03-07T01:05:57;15.95;;;9.25;;
12867;SDS011;33517;49.866;8.320;2024-03-07T01:08:49;8.88;;;4.25;;
12867;SDS011;33517;49.866;8.320;2024-03-07T01:11:43;16.83;;;8.02;;
12867;SDS011;33517;49.866;8.320;2024-03-07T01:14:36;8.75;;;5.75;;
12867;SDS011;33517;49.866;8.320;2024-03-07T01:17:28;8.70;;;5.10;;
12867;SDS011;33517;49.866;8.320;2024-03-07T01:20:20;4.55;;;4.13;;
12867;SDS011;33517;49.866;8.320;2024-03-07T01:23:15;9.82;;;5.40;;
12867;SDS011;33517;49.866;8.320;2024-03-07T01:26:07;5.78;;;3.17;;
12867;SDS011;33517;49.866;8.320;2024-03-07T01:28:59;5.10;;;3.97;;
12867;SDS011;33517;49.866;8.320;2024-03-07T01:31:51;14.45;;;5.97;;
12867;SDS011;33517;49.866;8.320;2024-03-07T01:34:43;7.90;;;5.07;;
12867;SDS011;33517;49.866;8.320;2024-03-07T01:37:35;2.88;;;2.22;;
12867;SDS011;33517;49.866;8.320;2024-03-07T01:40:28;7.97;;;4.70;;
12867;SDS011;33517;49.866;8.320;2024-03-07T01:43:20;6.70;;;4.05;;
12867;SDS011;33517;49.866;8.320;2024-03-07T01:46:12;5.28;;;4.38;;
12867;SDS011;33517;49.866;8.320;2024-03-07T01:49:04;4.30;;;3.53;;
12867;SDS011;33517;49.866;8.320;2024-03-07T01:51:57;7.18;;;3.40;;
12867;SDS011;33517;49.866;8.320;2024-03-07T01:54:50;7.82;;;4.82;;
12867;SDS011;33517;49.866;8.320;2024-03-07T01:57:43;4.38;;;2.75;;
12867;SDS011;33517;49.866;8.320;2024-03-07T02:00:36;7.07;;;4.10;;
12867;SDS011;33517;49.866;8.320;2024-03-07T02:03:27;4.03;;;3.38;;
12867;SDS011;33517;49.866;8.320;2024-03-07T02:06:19;10.50;;;3.65;;
12867;SDS011;33517;49.866;8.320;2024-03-07T02:09:12;5.05;;;3.25;;
12867;SDS011;33517;49.866;8.320;2024-03-07T02:12:05;7.28;;;4.32;;
12867;SDS011;33517;49.866;8.320;2024-03-07T02:15:00;4.32;;;3.90;;
12867;SDS011;33517;49.866;8.320;2024-03-07T02:17:53;4.70;;;3.28;;
12867;SDS011;33517;49.866;8.320;2024-03-07T02:20:46;3.17;;;2.70;;
12867;SDS011;33517;49.866;8.320;2024-03-07T02:23:38;7.05;;;5.55;;
12867;SDS011;33517;49.866;8.320;2024-03-07T02:26:31;10.95;;;3.90;;
12867;SDS011;33517;49.866;8.320;2024-03-07T02:29:23;6.00;;;4.85;;
12867;SDS011;33517;49.866;8.320;2024-03-07T02:32:15;11.32;;;3.65;;
12867;SDS011;33517;49.866;8.320;2024-03-07T02:35:07;6.57;;;5.35;;
12867;SDS011;33517;49.866;8.320;2024-03-07T02:38:01;2.10;;;1.92;;
12867;SDS011;33517;49.866;8.320;2024-03-07T02:40:53;4.95;;;3.10;;
12867;SDS011;33517;49.866;8.320;2024-03-07T02:43:45;2.75;;;2.45;;
12867;SDS011;33517;49.866;8.320;2024-03-07T02:46:37;4.03;;;3.20;;
12867;SDS011;33517;49.866;8.320;2024-03-07T02:49:29;2.78;;;2.58;;
12867;SDS011;33517;49.866;8.320;2024-03-07T02:52:21;3.47;;;2.67;;
12867;SDS011;33517;49.866;8.320;2024-03-07T02:55:14;6.28;;;3.38;;
12867;SDS011;33517;49.866;8.320;2024-03-07T02:58:06;6.13;;;2.60;;
12867;SDS011;33517;49.866;8.320;2024-03-07T03:00:58;5.22;;;2.83;;
12867;SDS011;33517;49.866;8.320;2024-03-07T03:03:51;4.32;;;2.05;;
12867;SDS011;33517;49.866;8.320;2024-03-07T03:06:43;4.45;;;3.88;;
12867;SDS011;33517;49.866;8.320;2024-03-07T03:09:35;5.88;;;2.72;;
12867;SDS011;33517;49.866;8.320;2024-03-07T03:12:31;4.05;;;3.10;;
12867;SDS011;33517;49.866;8.320;2024-03-07T03:15:23;4.20;;;3.50;;
12867;SDS011;33517;49.866;8.320;2024-03-07T03:18:15;4.43;;;3.03;;
12867;SDS011;33517;49.866;8.320;2024-03-07T03:21:07;2.60;;;2.40;;
12867;SDS011;33517;49.866;8.320;2024-03-07T03:24:00;2.97;;;2.67;;
12867;SDS011;33517;49.866;8.320;2024-03-07T03:26:53;3.45;;;2.58;;
12867;SDS011;33517;49.866;8.320;2024-03-07T03:29:46;3.03;;;1.88;;
12867;SDS011;33517;49.866;8.320;2024-03-07T03:32:38;3.15;;;2.55;;
12867;SDS011;33517;49.866;8.320;2024-03-07T03:35:30;2.22;;;2.03;;
12867;SDS011;33517;49.866;8.320;2024-03-07T03:38:22;13.57;;;4.03;;
12867;SDS011;33517;49.866;8.320;2024-03-07T03:41:14;3.40;;;2.38;;
12867;SDS011;33517;49.866;8.320;2024-03-07T03:44:07;2.17;;;1.67;;
12867;SDS011;33517;49.866;8.320;2024-03-07T03:47:00;3.45;;;2.33;;
12867;SDS011;33517;49.866;8.320;2024-03-07T03:49:54;2.75;;;2.15;;
12867;SDS011;33517;49.866;8.320;2024-03-07T03:52:46;4.22;;;1.67;;
12867;SDS011;33517;49.866;8.320;2024-03-07T03:55:38;5.43;;;2.67;;
12867;SDS011;33517;49.866;8.320;2024-03-07T03:58:30;5.57;;;2.95;;
12867;SDS011;33517;49.866;8.320;2024-03-07T04:01:22;1.85;;;1.70;;
12867;SDS011;33517;49.866;8.320;2024-03-07T04:04:15;2.90;;;2.65;;
12867;SDS011;33517;49.866;8.320;2024-03-07T04:07:07;9.30;;;3.58;;
12867;SDS011;33517;49.866;8.320;2024-03-07T04:09:59;1.90;;;1.70;;
12867;SDS011;33517;49.866;8.320;2024-03-07T04:12:53;6.78;;;2.75;;
12867;SDS011;33517;49.866;8.320;2024-03-07T04:15:45;5.07;;;2.85;;
12867;SDS011;33517;49.866;8.320;2024-03-07T04:18:37;3.00;;;2.25;;
12867;SDS011;33517;49.866;8.320;2024-03-07T04:21:30;1.90;;;1.80;;
12867;SDS011;33517;49.866;8.320;2024-03-07T04:24:22;2.92;;;2.72;;
12867;SDS011;33517;49.866;8.320;2024-03-07T04:27:14;2.40;;;2.25;;
12867;SDS011;33517;49.866;8.320;2024-03-07T04:30:06;2.63;;;2.42;;
12867;SDS011;33517;49.866;8.320;2024-03-07T04:32:59;1.95;;;1.85;;
12867;SDS011;33517;49.866;8.320;2024-03-07T04:35:51;2.60;;;2.00;;
12867;SDS011;33517;49.866;8.320;2024-03-07T04:38:46;10.68;;;4.13;;
12867;SDS011;33517;49.866;8.320;2024-03-07T04:41:38;5.72;;;2.00;;
12867;SDS011;33517;49.866;8.320;2024-03-07T04:44:30;2.90;;;2.38;;
12867;SDS011;33517;49.866;8.320;2024-03-07T04:47:23;4.00;;;3.03;;
12867;SDS011;33517;49.866;8.320;2024-03-07T04:50:15;2.47;;;2.22;;
12867;SDS011;33517;49.866;8.320;2024-03-07T04:53:08;4.00;;;3.00;;
12867;SDS011;33517;49.866;8.320;2024-03-07T04:56:01;4.85;;;2.70;;
12867;SDS011;33517;49.866;8.320;2024-03-07T04:58:53;7.15;;;4.43;;
12867;SDS011;33517;49.866;8.320;2024-03-07T05:01:46;4.47;;;3.90;;
12867;SDS011;33517;49.866;8.320;2024-03-07T05:04:40;6.93;;;5.40;;
12867;SDS011;33517;49.866;8.320;2024-03-07T05:07:31;8.35;;;3.40;;
12867;SDS011;33517;49.866;8.320;2024-03-07T05:10:23;5.72;;;3.08;;
12867;SDS011;33517;49.866;8.320;2024-03-07T05:13:18;4.07;;;3.30;;
12867;SDS011;33517;49.866;8.320;2024-03-07T05:16:10;10.32;;;2.83;;
12867;SDS011;33517;49.866;8.320;2024-03-07T05:19:02;2.83;;;2.55;;
12867;SDS011;33517;49.866;8.320;2024-03-07T05:21:55;3.88;;;2.83;;
12867;SDS011;33517;49.866;8.320;2024-03-07T05:24:47;4.40;;;2.72;;
12867;SDS011;33517;49.866;8.320;2024-03-07T05:27:40;8.25;;;6.68;;
12867;SDS011;33517;49.866;8.320;2024-03-07T05:30:33;8.80;;;5.65;;
12867;SDS011;33517;49.866;8.320;2024-03-07T05:33:25;9.73;;;3.88;;
12867;SDS011;33517;49.866;8.320;2024-03-07T05:36:18;6.00;;;4.20;;
12867;SDS011;33517;49.866;8.320;2024-03-07T05:39:10;5.68;;;2.20;;
12867;SDS011;33517;49.866;8.320;2024-03-07T05:42:03;6.40;;;4.10;;
12867;SDS011;33517;49.866;8.320;2024-03-07T05:44:54;9.88;;;3.03;;
12867;SDS011;33517;49.866;8.320;2024-03-07T05:47:48;6.80;;;4.05;;
12867;SDS011;33517;49.866;8.320;2024-03-07T05:50:39;7.35;;;5.03;;
12867;SDS011;33517;49.866;8.320;2024-03-07T05:53:31;8.68;;;5.25;;
12867;SDS011;33517;49.866;8.320;2024-03-07T05:56:25;6.15;;;4.55;;
12867;SDS011;33517;49.866;8.320;2024-03-07T05:59:17;5.50;;;3.92;;
12867;SDS011;33517;49.866;8.320;2024-03-07T06:02:09;7.93;;;3.20;;
12867;SDS011;33517;49.866;8.320;2024-03-07T06:05:07;12.98;;;4.05;;
12867;SDS011;33517;49.866;8.320;2024-03-07T06:08:05;9.23;;;3.67;;
12867;SDS011;33517;49.866;8.320;2024-03-07T06:10:57;3.45;;;2.47;;
12867;SDS011;33517;49.866;8.320;2024-03-07T06:13:49;6.30;;;2.83;;
12867;SDS011;33517;49.866;8.320;2024-03-07T06:16:42;6.10;;;3.85;;
12867;SDS011;33517;49.866;8.320;2024-03-07T06:19:34;6.28;;;4.32;;
12867;SDS011;33517;49.866;8.320;2024-03-07T06:22:27;2.38;;;1.85;;
12867;SDS011;33517;49.866;8.320;2024-03-07T06:25:19;4.47;;;2.97;;
12867;SDS011;33517;49.866;8.320;2024-03-07T06:28:23;4.55;;;3.13;;
12867;SDS011;33517;49.866;8.320;2024-03-07T06:31:15;4.82;;;4.15;;
12867;SDS011;33517;49.866;8.320;2024-03-07T06:34:10;8.32;;;4.13;;
12867;SDS011;33517;49.866;8.320;2024-03-07T06:37:03;2.67;;;2.35;;
12867;SDS011;33517;49.866;8.320;2024-03-07T06:39:57;4.32;;;3.60;;
12867;SDS011;33517;49.866;8.320;2024-03-07T06:42:49;5.57;;;4.28;;
12867;SDS011;33517;49.866;8.320;2024-03-07T06:45:42;9.93;;;4.88;;
12867;SDS011;33517;49.866;8.320;2024-03-07T06:48:33;5.80;;;4.05;;
12867;SDS011;33517;49.866;8.320;2024-03-07T06:51:25;8.05;;;4.85;;
12867;SDS011;33517;49.866;8.320;2024-03-07T06:54:18;10.95;;;6.60;;
12867;SDS011;33517;49.866;8.320;2024-03-07T06:57:13;9.45;;;4.78;;
12867;SDS011;33517;49.866;8.320;2024-03-07T07:00:09;3.50;;;3.20;;
12867;SDS011;33517;49.866;8.320;2024-03-07T07:03:02;11.23;;;7.05;;
12867;SDS011;33517;49.866;8.320;2024-03-07T07:05:55;16.63;;;5.80;;
12867;SDS011;33517;49.866;8.320;2024-03-07T07:08:47;3.30;;;2.55;;
12867;SDS011;33517;49.866;8.320;2024-03-07T07:11:40;5.63;;;4.57;;
12867;SDS011;33517;49.866;8.320;2024-03-07T07:14:35;5.70;;;2.42;;
12867;SDS011;33517;49.866;8.320;2024-03-07T07:17:27;6.22;;;2.88;;
12867;SDS011;33517;49.866;8.320;2024-03-07T07:20:19;8.38;;;4.40;;
12867;SDS011;33517;49.866;8.320;2024-03-07T07:23:11;3.35;;;3.03;;
12867;SDS011;33517;49.866;8.320;2024-03-07T07:26:05;4.90;;;2.95;;
12867;SDS011;33517;49.866;8.320;2024-03-07T07:28:57;12.10;;;5.18;;
12867;SDS011;33517;49.866;8.320;2024-03-07T07:31:50;5.38;;;3.20;;
12867;SDS011;33517;49.866;8.320;2024-03-07T07:34:42;9.25;;;3.83;;
12867;SDS011;33517;49.866;8.320;2024-03-07T07:37:35;2.83;;;2.00;;
12867;SDS011;33517;49.866;8.320;2024-03-07T07:40:27;6.50;;;3.22;;
12867;SDS011;33517;49.866;8.320;2024-03-07T07:43:21;2.63;;;2.42;;
12867;SDS011;33517;49.866;8.320;2024-03-07T07:46:13;12.05;;;5.88;;
12867;SDS011;33517;49.866;8.320;2024-03-07T07:49:07;10.55;;;3.42;;
12867;SDS011;33517;49.866;8.320;2024-03-07T07:51:59;10.52;;;3.63;;
12867;SDS011;33517;49.866;8.320;2024-03-07T07:54:51;7.00;;;3.70;;
12867;SDS011;33517;49.866;8.320;2024-03-07T07:57:43;9.05;;;5.60;;
12867;SDS011;33517;49.866;8.320;2024-03-07T08:00:36;5.55;;;2.88;;
12867;SDS011;33517;49.866;8.320;2024-03-07T08:03:28;4.80;;;3.67;;
12867;SDS011;33517;49.866;8.320;2024-03-07T08:06:21;7.75;;;2.58;;
12867;SDS011;33517;49.866;8.320;2024-03-07T08:09:14;7.05;;;4.15;;
12867;SDS011;33517;49.866;8.320;2024-03-07T08:12:06;4.75;;;3.13;;
12867;SDS011;33517;49.866;8.320;2024-03-07T08:15:00;9.55;;;5.57;;
12867;SDS011;33517;49.866;8.320;2024-03-07T08:17:52;8.52;;;5.70;;
12867;SDS011;33517;49.866;8.320;2024-03-07T08:20:45;6.05;;;4.18;;
12867;SDS011;33517;49.866;8.320;2024-03-07T08:23:38;4.80;;;3.45;;
12867;SDS011;33517;49.866;8.320;2024-03-07T08:26:31;5.88;;;2.95;;
12867;SDS011;33517;49.866;8.320;2024-03-07T08:29:23;6.57;;;4.32;;
12867;SDS011;33517;49.866;8.320;2024-03-07T08:32:15;8.32;;;3.97;;
12867;SDS011;33517;49.866;8.320;2024-03-07T08:35:08;6.13;;;4.13;;
12867;SDS011;33517;49.866;8.320;2024-03-07T08:38:02;5.47;;;3.47;;
12867;SDS011;33517;49.866;8.320;2024-03-07T08:40:56;7.75;;;4.82;;
12867;SDS011;33517;49.866;8.320;2024-03-07T08:43:48;15.10;;;4.93;;
12867;SDS011;33517;49.866;8.320;2024-03-07T08:46:41;6.40;;;4.70;;
12867;SDS011;33517;49.866;8.320;2024-03-07T08:49:34;7.57;;;4.50;;
12867;SDS011;33517;49.866;8.320;2024-03-07T08:52:26;5.25;;;3.88;;
12867;SDS011;33517;49.866;8.320;2024-03-07T08:55:18;9.77;;;5.35;;
12867;SDS011;33517;49.866;8.320;2024-03-07T08:58:13;7.88;;;4.70;;
12867;SDS011;33517;49.866;8.320;2024-03-07T09:01:05;7.45;;;4.63;;
12867;SDS011;33517;49.866;8.320;2024-03-07T09:03:56;8.32;;;5.35;;
12867;SDS011;33517;49.866;8.320;2024-03-07T09:06:49;6.90;;;4.97;;
12867;SDS011;33517;49.866;8.320;2024-03-07T09:09:41;9.50;;;5.07;;
12867;SDS011;33517;49.866;8.320;2024-03-07T09:12:35;10.18;;;4.63;;
12867;SDS011;33517;49.866;8.320;2024-03-07T09:15:29;11.80;;;5.25;;
12867;SDS011;33517;49.866;8.320;2024-03-07T09:18:23;10.13;;;5.63;;
12867;SDS011;33517;49.866;8.320;2024-03-07T09:21:15;9.10;;;5.18;;
12867;SDS011;33517;49.866;8.320;2024-03-07T09:24:07;9.65;;;5.03;;
12867;SDS011;33517;49.866;8.320;2024-03-07T09:26:59;10.10;;;5.07;;
12867;SDS011;33517;49.866;8.320;2024-03-07T09:29:51;6.60;;;4.55;;
12867;SDS011;33517;49.866;8.320;2024-03-07T09:32:44;6.82;;;4.43;;
12867;SDS011;33517;49.866;8.320;2024-03-07T09:35:36;9.07;;;5.07;;
12867;SDS011;33517;49.866;8.320;2024-03-07T09:38:29;7.10;;;4.60;;
12867;SDS011;33517;49.866;8.320;2024-03-07T09:41:21;8.50;;;4.47;;
12867;SDS011;33517;49.866;8.320;2024-03-07T09:44:15;6.13;;;4.65;;
12867;SDS011;33517;49.866;8.320;2024-03-07T09:47:13;8.45;;;4.68;;
12867;SDS011;33517;49.866;8.320;2024-03-07T09:50:07;8.27;;;4.88;;
12867;SDS011;33517;49.866;8.320;2024-03-07T09:53:00;7.90;;;4.97;;
12867;SDS011;33517;49.866;8.320;2024-03-07T09:55:55;6.95;;;4.47;;
12867;SDS011;33517;49.866;8.320;2024-03-07T09:58:48;9.00;;;4.80;;
12867;SDS011;33517;49.866;8.320;2024-03-07T10:01:41;6.90;;;4.78;;
12867;SDS011;33517;49.866;8.320;2024-03-07T10:04:39;8.07;;;4.82;;
12867;SDS011;33517;49.866;8.320;2024-03-07T10:07:37;6.55;;;4.70;;
12867;SDS011;33517;49.866;8.320;2024-03-07T10:10:28;9.20;;;5.40;;
12867;SDS011;33517;49.866;8.320;2024-03-07T10:13:22;9.52;;;5.07;;
12867;SDS011;33517;49.866;8.320;2024-03-07T10:16:15;11.73;;;5.60;;
12867;SDS011;33517;49.866;8.320;2024-03-07T10:19:07;13.63;;;4.72;;
12867;SDS011;33517;49.866;8.320;2024-03-07T10:22:00;8.38;;;4.63;;
12867;SDS011;33517;49.866;8.320;2024-03-07T10:24:58;7.03;;;4.43;;
12867;SDS011;33517;49.866;8.320;2024-03-07T10:27:50;34.42;;;5.40;;
12867;SDS011;33517;49.866;8.320;2024-03-07T10:30:43;12.32;;;4.25;;
12867;SDS011;33517;49.866;8.320;2024-03-07T10:33:36;5.40;;;4.10;;
12867;SDS011;33517;49.866;8.320;2024-03-07T10:36:28;6.35;;;4.65;;
12867;SDS011;33517;49.866;8.320;2024-03-07T10:39:21;7.75;;;4.72;;
12867;SDS011;33517;49.866;8.320;2024-03-07T10:42:14;8.20;;;4.20;;
12867;SDS011;33517;49.866;8.320;2024-03-07T10:45:07;6.43;;;3.80;;
12867;SDS011;33517;49.866;8.320;2024-03-07T10:48:02;7.00;;;4.57;;
12867;SDS011;33517;49.866;8.320;2024-03-07T10:51:02;7.88;;;4.82;;
12867;SDS011;33517;49.866;8.320;2024-03-07T10:54:05;5.88;;;4.25;;
12867;SDS011;33517;49.866;8.320;2024-03-07T10:57:06;10.13;;;5.07;;
12867;SDS011;33517;49.866;8.320;2024-03-07T11:00:13;8.45;;;5.60;;
12867;SDS011;33517;49.866;8.320;2024-03-07T11:03:20;6.28;;;4.85;;
12867;SDS011;33517;49.866;8.320;2024-03-07T11:06:12;10.40;;;5.03;;
12867;SDS011;33517;49.866;8.320;2024-03-07T11:09:06;7.85;;;4.35;;
12867;SDS011;33517;49.866;8.320;2024-03-07T11:12:01;7.40;;;5.05;;
12867;SDS011;33517;49.866;8.320;2024-03-07T11:14:56;8.23;;;5.63;;
12867;SDS011;33517;49.866;8.320;2024-03-07T11:17:49;6.65;;;5.15;;
12867;SDS011;33517;49.866;8.320;2024-03-07T11:20:44;7.75;;;5.18;;
12867;SDS011;33517;49.866;8.320;2024-03-07T11:23:38;9.25;;;5.90;;
12867;SDS011;33517;49.866;8.320;2024-03-07T11:26:36;10.77;;;5.47;;
12867;SDS011;33517;49.866;8.320;2024-03-07T11:29:41;8.20;;;4.75;;
12867;SDS011;33517;49.866;8.320;2024-03-07T11:32:36;8.23;;;5.13;;
12867;SDS011;33517;49.866;8.320;2024-03-07T11:35:32;11.02;;;5.53;;
12867;SDS011;33517;49.866;8.320;2024-03-07T11:38:30;7.13;;;4.80;;
12867;SDS011;33517;49.866;8.320;2024-03-07T11:41:24;8.38;;;4.60;;
12867;SDS011;33517;49.866;8.320;2024-03-07T11:44:16;19.15;;;3.80;;
12867;SDS011;33517;49.866;8.320;2024-03-07T11:47:08;7.07;;;5.07;;
12867;SDS011;33517;49.866;8.320;2024-03-07T11:50:03;6.35;;;4.75;;
12867;SDS011;33517;49.866;8.320;2024-03-07T11:52:58;6.65;;;5.00;;
12867;SDS011;33517;49.866;8.320;2024-03-07T11:55:50;9.07;;;5.85;;
12867;SDS011;33517;49.866;8.320;2024-03-07T11:58:44;9.77;;;5.15;;
12867;SDS011;33517;49.866;8.320;2024-03-07T12:01:42;8.77;;;5.00;;
12867;SDS011;33517;49.866;8.320;2024-03-07T12:04:34;10.95;;;4.68;;
12867;SDS011;33517;49.866;8.320;2024-03-07T12:07:27;8.18;;;5.50;;
12867;SDS011;33517;49.866;8.320;2024-03-07T12:10:19;8.50;;;4.97;;
12867;SDS011;33517;49.866;8.320;2024-03-07T12:13:15;6.97;;;4.60;;
12867;SDS011;33517;49.866;8.320;2024-03-07T12:16:07;7.97;;;4.60;;
12867;SDS011;33517;49.866;8.320;2024-03-07T12:18:59;7.82;;;4.32;;
12867;SDS011;33517;49.866;8.320;2024-03-07T12:21:56;6.40;;;4.15;;
12867;SDS011;33517;49.866;8.320;2024-03-07T12:24:58;7.70;;;4.75;;
12867;SDS011;33517;49.866;8.320;2024-03-07T12:28:02;6.45;;;4.05;;
12867;SDS011;33517;49.866;8.320;2024-03-07T12:30:55;8.13;;;4.72;;
12867;SDS011;33517;49.866;8.320;2024-03-07T12:33:47;7.18;;;5.05;;
12867;SDS011;33517;49.866;8.320;2024-03-07T12:36:41;6.80;;;4.80;;
12867;SDS011;33517;49.866;8.320;2024-03-07T12:39:36;6.88;;;4.03;;
12867;SDS011;33517;49.866;8.320;2024-03-07T12:42:38;9.32;;;4.65;;
12867;SDS011;33517;49.866;8.320;2024-03-07T12:45:32;9.73;;;4.85;;
12867;SDS011;33517;49.866;8.320;2024-03-07T12:48:25;6.95;;;4.18;;
12867;SDS011;33517;49.866;8.320;2024-03-07T12:51:18;7.65;;;4.82;;
12867;SDS011;33517;49.866;8.320;2024-03-07T12:54:13;4.82;;;3.63;;
12867;SDS011;33517;49.866;8.320;2024-03-07T12:57:05;5.65;;;4.47;;
12867;SDS011;33517;49.866;8.320;2024-03-07T12:59:58;5.97;;;4.07;;
12867;SDS011;33517;49.866;8.320;2024-03-07T13:02:50;5.88;;;4.35;;
12867;SDS011;33517;49.866;8.320;2024-03-07T13:05:42;5.78;;;3.85;;
12867;SDS011;33517;49.866;8.320;2024-03-07T13:08:34;4.63;;;2.88;;
12867;SDS011;33517;49.866;8.320;2024-03-07T13:11:26;4.60;;;3.38;;
12867;SDS011;33517;49.866;8.320;2024-03-07T13:14:20;7.13;;;4.25;;
12867;SDS011;33517;49.866;8.320;2024-03-07T13:17:13;3.97;;;2.65;;
12867;SDS011;33517;49.866;8.320;2024-03-07T13:20:08;7.55;;;3.53;;
12867;SDS011;33517;49.866;8.320;2024-03-07T13:23:02;4.35;;;3.13;;
12867;SDS011;33517;49.866;8.320;2024-03-07T13:25:55;4.07;;;3.15;;
12867;SDS011;33517;49.866;8.320;2024-03-07T13:28:47;7.28;;;3.40;;
12867;SDS011;33517;49.866;8.320;2024-03-07T13:31:40;8.45;;;3.65;;
12867;SDS011;33517;49.866;8.320;2024-03-07T13:34:34;6.93;;;3.08;;
12867;SDS011;33517;49.866;8.320;2024-03-07T13:37:28;4.38;;;3.10;;
12867;SDS011;33517;49.866;8.320;2024-03-07T13:40:24;4.43;;;2.53;;
12867;SDS011;33517;49.866;8.320;2024-03-07T13:43:17;3.40;;;2.78;;
12867;SDS011;33517;49.866;8.320;2024-03-07T13:46:09;3.42;;;3.05;;
12867;SDS011;33517;49.866;8.320;2024-03-07T13:49:02;2.53;;;2.17;;
12867;SDS011;33517;49.866;8.320;2024-03-07T13:52:04;8.57;;;2.90;;
12867;SDS011;33517;49.866;8.320;2024-03-07T13:55:05;4.35;;;2.88;;
12867;SDS011;33517;49.866;8.320;2024-03-07T13:58:01;2.35;;;2.15;;
12867;SDS011;33517;49.866;8.320;2024-03-07T14:01:02;5.68;;;3.10;;
12867;SDS011;33517;49.866;8.320;2024-03-07T14:04:26;5.22;;;3.05;;
12867;SDS011;33517;49.866;8.320;2024-03-07T14:07:41;7.38;;;2.60;;
12867;SDS011;33517;49.866;8.320;2024-03-07T14:11:01;3.08;;;2.28;;
12867;SDS011;33517;49.866;8.320;2024-03-07T14:14:28;2.47;;;2.05;;
12867;SDS011;33517;49.866;8.320;2024-03-07T14:21:10;5.32;;;3.53;;
12867;SDS011;33517;49.866;8.320;2024-03-07T14:24:23;4.68;;;3.20;;
12867;SDS011;33517;49.866;8.320;2024-03-07T14:27:39;3.58;;;2.25;;
12867;SDS011;33517;49.866;8.320;2024-03-07T14:30:42;3.20;;;2.33;;
12867;SDS011;33517;49.866;8.320;2024-03-07T14:33:51;5.63;;;2.65;;
12867;SDS011;33517;49.866;8.320;2024-03-07T14:37:04;3.22;;;2.08;;
12867;SDS011;33517;49.866;8.320;2024-03-07T14:40:12;3.72;;;2.63;;
12867;SDS011;33517;49.866;8.320;2024-03-07T14:43:05;4.80;;;3.00;;
12867;SDS011;33517;49.866;8.320;2024-03-07T14:45:58;2.67;;;2.40;;
12867;SDS011;33517;49.866;8.320;2024-03-07T14:48:49;2.50;;;2.28;;
12867;SDS011;33517;49.866;8.320;2024-03-07T14:51:42;3.63;;;3.17;;
12867;SDS011;33517;49.866;8.320;2024-03-07T14:54:34;4.25;;;2.25;;
12867;SDS011;33517;49.866;8.320;2024-03-07T14:57:27;3.75;;;2.75;;
12867;SDS011;33517;49.866;8.320;2024-03-07T15:00:19;3.72;;;2.75;;
12867;SDS011;33517;49.866;8.320;2024-03-07T15:03:17;3.33;;;2.13;;
12867;SDS011;33517;49.866;8.320;2024-03-07T15:06:09;5.90;;;2.53;;
12867;SDS011;33517;49.866;8.320;2024-03-07T15:09:00;4.18;;;2.35;;
12867;SDS011;33517;49.866;8.320;2024-03-07T15:11:53;2.83;;;1.80;;
12867;SDS011;33517;49.866;8.320;2024-03-07T15:14:46;4.15;;;2.97;;
12867;SDS011;33517;49.866;8.320;2024-03-07T15:17:38;5.22;;;2.67;;
12867;SDS011;33517;49.866;8.320;2024-03-07T15:20:31;6.63;;;2.63;;
12867;SDS011;33517;49.866;8.320;2024-03-07T15:23:23;7.15;;;2.70;;
12867;SDS011;33517;49.866;8.320;2024-03-07T15:26:15;2.45;;;2.10;;
12867;SDS011;33517;49.866;8.320;2024-03-07T15:29:08;2.47;;;2.10;;
12867;SDS011;33517;49.866;8.320;2024-03-07T15:32:01;3.70;;;2.72;;
12867;SDS011;33517;49.866;8.320;2024-03-07T15:34:53;10.18;;;2.35;;
12867;SDS011;33517;49.866;8.320;2024-03-07T15:37:46;4.47;;;2.65;;
12867;SDS011;33517;49.866;8.320;2024-03-07T15:40:40;3.70;;;2.22;;
12867;SDS011;33517;49.866;8.320;2024-03-07T15:43:31;3.70;;;2.22;;
12867;SDS011;33517;49.866;8.320;2024-03-07T15:46:23;3.67;;;2.47;;
12867;SDS011;33517;49.866;8.320;2024-03-07T15:49:17;4.13;;;2.35;;
12867;SDS011;33517;49.866;8.320;2024-03-07T15:52:08;2.10;;;1.85;;
12867;SDS011;33517;49.866;8.320;2024-03-07T15:55:03;5.00;;;2.47;;
12867;SDS011;33517;49.866;8.320;2024-03-07T15:57:56;2.88;;;2.00;;
12867;SDS011;33517;49.866;8.320;2024-03-07T16:00:54;2.45;;;1.90;;
12867;SDS011;33517;49.866;8.320;2024-03-07T16:03:47;2.33;;;1.88;;
12867;SDS011;33517;49.866;8.320;2024-03-07T16:06:43;2.30;;;2.08;;
12867;SDS011;33517;49.866;8.320;2024-03-07T16:09:35;4.47;;;2.15;;
12867;SDS011;33517;49.866;8.320;2024-03-07T16:12:27;2.20;;;1.80;;
12867;SDS011;33517;49.866;8.320;2024-03-07T16:15:19;3.15;;;2.30;;
12867;SDS011;33517;49.866;8.320;2024-03-07T16:18:12;3.65;;;2.85;;
12867;SDS011;33517;49.866;8.320;2024-03-07T16:21:05;2.75;;;2.10;;
12867;SDS011;33517;49.866;8.320;2024-03-07T16:23:59;3.58;;;2.67;;
12867;SDS011;33517;49.866;8.320;2024-03-07T16:26:51;5.35;;;2.80;;
12867;SDS011;33517;49.866;8.320;2024-03-07T16:29:43;2.65;;;2.33;;
12867;SDS011;33517;49.866;8.320;2024-03-07T16:32:35;3.95;;;2.35;;
12867;SDS011;33517;49.866;8.320;2024-03-07T16:35:27;3.95;;;2.78;;
12867;SDS011;33517;49.866;8.320;2024-03-07T16:38:21;2.50;;;2.22;;
12867;SDS011;33517;49.866;8.320;2024-03-07T16:41:14;0.95;;;0.95;;
12867;SDS011;33517;49.866;8.320;2024-03-07T16:44:06;3.55;;;2.83;;
12867;SDS011;33517;49.866;8.320;2024-03-07T16:46:59;3.72;;;2.25;;
12867;SDS011;33517;49.866;8.320;2024-03-07T16:49:52;2.45;;;1.88;;
12867;SDS011;33517;49.866;8.320;2024-03-07T16:52:44;2.50;;;2.00;;
12867;SDS011;33517;49.866;8.320;2024-03-07T16:55:37;2.28;;;1.95;;
12867;SDS011;33517;49.866;8.320;2024-03-07T16:58:31;4.40;;;2.53;;
12867;SDS011;33517;49.866;8.320;2024-03-07T17:01:24;7.85;;;3.53;;
12867;SDS011;33517;49.866;8.320;2024-03-07T17:04:16;2.38;;;2.17;;
12867;SDS011;33517;49.866;8.320;2024-03-07T17:07:08;3.30;;;2.20;;
12867;SDS011;33517;49.866;8.320;2024-03-07T17:09:59;4.25;;;3.20;;
12867;SDS011;33517;49.866;8.320;2024-03-07T17:12:53;3.92;;;2.80;;
12867;SDS011;33517;49.866;8.320;2024-03-07T17:15:46;4.70;;;2.17;;
12867;SDS011;33517;49.866;8.320;2024-03-07T17:18:38;7.72;;;1.80;;
12867;SDS011;33517;49.866;8.320;2024-03-07T17:21:31;2.22;;;1.90;;
12867;SDS011;33517;49.866;8.320;2024-03-07T17:24:23;4.10;;;2.45;;
12867;SDS011;33517;49.866;8.320;2024-03-07T17:27:16;6.25;;;2.90;;
12867;SDS011;33517;49.866;8.320;2024-03-07T17:30:07;2.05;;;1.88;;